createdAt,value
2019-04-21T00:05:18.820Z,97.40
2019-04-21T00:10:28.462Z,97.30
2019-04-21T00:15:24.139Z,97.50
2019-04-21T00:20:30.947Z,97.60
2019-04-21T00:25:46.056Z,97.50
2019-04-21T00:31:02.608Z,97.50
2019-04-21T00:35:57.719Z,97.80
2019-04-21T00:41:23.502Z,97.80
2019-04-21T00:46:28.002Z,97.80
2019-04-21T00:51:49.821Z,97.90
2019-04-21T00:56:56.669Z,98.00
2019-04-21T01:01:56.611Z,98.10
2019-04-21T01:07:11.177Z,98.20
2019-04-21T01:12:20.547Z,98.20
2019-04-21T01:17:21.780Z,98.40
2019-04-21T01:22:13.297Z,98.50
2019-04-21T01:27:43.886Z,98.60
2019-04-21T01:32:53.144Z,98.80
2019-04-21T01:38:04.708Z,98.80
2019-04-21T01:43:11.885Z,99.10
2019-04-21T01:48:22.906Z,99.00
2019-04-21T01:53:53.300Z,98.80
2019-04-21T01:58:48.182Z,99.20
2019-04-21T02:04:18.000Z,99.30
2019-04-21T02:09:14.862Z,99.50
2019-04-21T02:14:33.277Z,99.30
2019-04-21T02:19:32.587Z,99.40
2019-04-21T02:24:49.623Z,99.30
2019-04-21T02:29:55.971Z,99.30
2019-04-21T02:40:25.498Z,99.30
2019-04-21T02:45:29.638Z,99.50
2019-04-21T02:50:42.995Z,99.50
2019-04-21T02:55:43.738Z,99.60
2019-04-21T03:01:23.510Z,99.80
2019-04-21T03:06:43.801Z,99.90
2019-04-21T03:11:56.391Z,99.90
2019-04-21T03:16:57.667Z,99.80
2019-04-21T03:22:18.264Z,99.90
2019-04-21T03:47:59.070Z,99.90
2019-04-21T03:53:03.814Z,99.90
2019-04-21T04:03:52.184Z,99.90
2019-04-21T04:24:38.906Z,99.90
2019-04-21T04:40:13.641Z,99.90
2019-04-21T04:45:41.678Z,99.90
2019-04-21T04:50:45.868Z,99.90
2019-04-21T05:01:02.435Z,99.90
2019-04-21T05:06:44.018Z,99.90
2019-04-21T05:17:03.937Z,99.90
2019-04-21T05:21:55.025Z,99.90
2019-04-21T05:26:58.421Z,99.90
2019-04-21T05:32:18.509Z,99.90
2019-04-21T05:37:43.264Z,99.90
2019-04-21T05:42:52.947Z,99.90
2019-04-21T05:48:28.298Z,99.90
2019-04-21T05:58:39.158Z,99.90
2019-04-21T06:03:54.984Z,99.90
2019-04-21T06:09:00.326Z,99.90
2019-04-21T06:14:08.285Z,99.90
2019-04-21T06:19:23.704Z,99.90
2019-04-21T06:24:21.831Z,99.90
2019-04-21T06:29:39.953Z,99.90
2019-04-21T06:35:04.326Z,98.90
2019-04-21T06:40:12.727Z,98.50
2019-04-21T06:45:10.323Z,97.60
2019-04-21T06:50:12.241Z,96.90
2019-04-21T06:55:20.548Z,96.60
2019-04-21T07:00:25.891Z,95.40
2019-04-21T07:05:44.064Z,94.40
2019-04-21T07:10:43.443Z,92.30
2019-04-21T07:15:57.131Z,91.90
2019-04-21T07:21:08.275Z,87.60
2019-04-21T07:26:13.727Z,84.20
2019-04-21T07:31:25.363Z,82.00
2019-04-21T07:36:43.299Z,77.60
2019-04-21T07:41:35.023Z,71.40
2019-04-21T07:46:41.699Z,69.20
2019-04-21T07:52:22.292Z,64.20
2019-04-21T07:57:23.517Z,61.50
2019-04-21T08:02:34.310Z,58.40
2019-04-21T08:07:56.039Z,57.90
2019-04-21T08:12:54.304Z,56.00
2019-04-21T08:18:09.270Z,52.70
2019-04-21T08:23:13.574Z,54.20
2019-04-21T08:28:20.483Z,53.60
2019-04-21T08:38:42.613Z,50.50
2019-04-21T08:43:52.001Z,51.60
2019-04-21T08:49:02.607Z,48.10
2019-04-21T08:54:16.528Z,45.50
2019-04-21T08:59:40.449Z,43.60
2019-04-21T09:04:48.070Z,42.60
2019-04-21T09:09:55.831Z,41.70
2019-04-21T09:15:04.766Z,42.50
2019-04-21T09:20:16.982Z,40.00
2019-04-21T09:25:26.951Z,41.40
2019-04-21T09:30:12.849Z,39.90
2019-04-21T09:35:22.235Z,37.70
2019-04-21T09:40:34.614Z,34.00
2019-04-21T09:45:38.546Z,28.90
2019-04-21T09:50:46.008Z,28.40
2019-04-21T09:55:58.204Z,26.10
2019-04-21T10:01:11.606Z,25.60
2019-04-21T10:06:13.953Z,24.60
2019-04-21T10:11:21.078Z,23.20
2019-04-21T10:16:59.677Z,22.70
2019-04-21T10:22:06.137Z,22.30
2019-04-21T10:27:14.779Z,22.40
2019-04-21T10:32:25.192Z,21.70
2019-04-21T10:37:44.132Z,21.00
2019-04-21T10:42:40.603Z,21.70
2019-04-21T10:47:49.361Z,20.50
2019-04-21T10:53:04.845Z,20.40
2019-04-21T10:58:16.173Z,21.60
2019-04-21T11:03:58.495Z,20.70
2019-04-21T11:09:10.881Z,20.50
2019-04-21T11:14:18.373Z,20.50
2019-04-21T11:19:25.691Z,19.30
2019-04-21T11:24:33.337Z,18.90
2019-04-21T11:29:41.361Z,19.80
2019-04-21T11:34:49.337Z,19.00
2019-04-21T11:40:03.345Z,18.60
2019-04-21T11:45:06.551Z,18.30
2019-04-21T11:50:14.968Z,18.00
2019-04-21T11:55:22.929Z,18.10
2019-04-21T12:00:31.545Z,17.50
2019-04-21T12:05:39.816Z,18.40
2019-04-21T12:10:47.365Z,18.50
2019-04-21T12:15:54.911Z,19.70
2019-04-21T12:21:03.242Z,18.00
2019-04-21T12:26:10.878Z,17.50
2019-04-21T12:31:31.784Z,19.30
2019-04-21T12:36:40.009Z,19.10
2019-04-21T12:41:48.777Z,17.80
2019-04-21T12:46:56.283Z,19.10
2019-04-21T12:52:04.314Z,18.10
2019-04-21T12:57:11.795Z,20.00
2019-04-21T13:02:19.886Z,18.50
2019-04-21T13:07:27.727Z,17.40
2019-04-21T13:12:35.312Z,17.00
2019-04-21T13:17:45.767Z,17.70
2019-04-21T13:22:52.383Z,17.10
2019-04-21T13:28:00.927Z,17.60
2019-04-21T13:33:09.175Z,17.90
2019-04-21T13:38:26.986Z,17.30
2019-04-21T13:43:29.134Z,17.10
2019-04-21T13:48:37.007Z,18.00
2019-04-21T13:53:47.031Z,17.90
2019-04-21T13:58:54.364Z,18.20
2019-04-21T14:04:02.111Z,19.20
2019-04-21T14:09:13.663Z,19.30
2019-04-21T14:14:21.037Z,19.50
2019-04-21T14:19:28.358Z,19.20
2019-04-21T14:24:37.093Z,18.40
2019-04-21T14:29:45.900Z,19.10
2019-04-21T14:34:54.043Z,19.50
2019-04-21T14:40:07.489Z,19.80
2019-04-21T14:45:14.529Z,20.10
2019-04-21T14:50:40.020Z,20.60
2019-04-21T14:55:49.173Z,21.30
2019-04-21T15:01:08.375Z,23.70
2019-04-21T15:06:15.798Z,24.90
2019-04-21T15:11:24.218Z,25.10
2019-04-21T15:16:33.234Z,26.30
2019-04-21T15:21:42.517Z,27.30
2019-04-21T15:26:52.737Z,27.60
2019-04-21T15:31:58.920Z,27.70
2019-04-21T15:37:08.062Z,28.80
2019-04-21T15:42:16.727Z,29.40
2019-04-21T15:47:24.192Z,31.80
2019-04-21T15:52:32.201Z,30.50
2019-04-21T15:57:58.972Z,31.90
2019-04-21T16:03:06.870Z,32.90
2019-04-21T16:08:14.340Z,34.30
2019-04-21T16:13:23.627Z,34.40
2019-04-21T16:18:32.157Z,33.50
2019-04-21T16:23:42.482Z,33.90
2019-04-21T16:28:51.245Z,36.20
2019-04-21T16:34:01.116Z,36.60
2019-04-21T16:39:11.923Z,35.60
2019-04-21T16:44:19.187Z,37.40
2019-04-21T16:49:27.502Z,38.40
2019-04-21T16:54:35.685Z,37.00
2019-04-21T16:59:48.476Z,36.90
2019-04-21T17:04:56.271Z,41.40
2019-04-21T17:10:04.534Z,40.80
2019-04-21T17:15:28.283Z,42.30
2019-04-21T17:20:34.196Z,45.00
2019-04-21T17:25:30.177Z,45.60
2019-04-21T17:30:37.577Z,44.30
2019-04-21T17:35:44.974Z,46.20
2019-04-21T17:40:53.744Z,47.10
2019-04-21T17:46:02.794Z,47.90
2019-04-21T17:51:35.273Z,49.40
2019-04-21T17:57:07.521Z,50.10
2019-04-21T18:02:12.999Z,51.00
2019-04-21T18:07:31.519Z,53.20
2019-04-21T18:12:40.043Z,53.80
2019-04-21T18:17:28.766Z,55.20
2019-04-21T18:23:15.408Z,56.60
2019-04-21T18:28:16.642Z,58.40
2019-04-21T18:33:33.121Z,59.90
2019-04-21T18:39:00.049Z,62.50
2019-04-21T18:44:21.347Z,64.60
2019-04-21T18:49:09.226Z,67.00
2019-04-21T18:54:37.143Z,71.20
2019-04-21T18:59:37.308Z,75.80
2019-04-21T19:04:41.334Z,79.70
2019-04-21T19:15:15.999Z,83.90
2019-04-21T19:20:29.495Z,85.50
2019-04-21T19:25:41.365Z,85.80
2019-04-21T19:30:56.474Z,87.10
2019-04-21T19:35:41.422Z,88.00
2019-04-21T19:41:03.432Z,89.10
2019-04-21T19:46:14.071Z,89.70
2019-04-21T19:51:24.487Z,89.90
2019-04-21T19:56:19.505Z,90.20
2019-04-21T20:01:27.678Z,90.50
2019-04-21T20:06:48.916Z,90.60
2019-04-21T20:12:02.860Z,91.10
2019-04-21T20:17:08.911Z,91.20
2019-04-21T20:22:09.217Z,91.60
2019-04-21T20:27:30.821Z,91.70
2019-04-21T20:32:54.988Z,91.70
2019-04-21T20:37:47.930Z,92.10
2019-04-21T20:42:58.558Z,92.40
2019-04-21T20:47:54.605Z,92.30
2019-04-21T20:53:19.649Z,92.80
2019-04-21T20:58:30.892Z,93.10
2019-04-21T21:03:39.337Z,93.50
2019-04-21T21:08:44.636Z,93.40
2019-04-21T21:14:05.971Z,93.50
2019-04-21T21:19:18.136Z,93.40
2019-04-21T21:24:11.050Z,93.70
2019-04-21T21:29:25.326Z,94.10
2019-04-21T21:34:34.513Z,94.10
2019-04-21T21:39:49.184Z,94.20
2019-04-21T21:44:35.267Z,94.50
2019-04-21T21:49:55.432Z,94.70
2019-04-21T21:54:51.900Z,94.60
2019-04-21T22:00:05.685Z,94.80
2019-04-21T22:05:16.772Z,94.70
2019-04-21T22:10:21.273Z,94.80
2019-04-21T22:15:32.019Z,94.80
2019-04-21T22:20:56.559Z,94.90
2019-04-21T22:25:47.522Z,95.10
2019-04-21T22:30:56.518Z,95.60
2019-04-21T22:36:18.174Z,95.30
2019-04-21T22:41:26.340Z,95.40
2019-04-21T22:46:24.466Z,95.50
2019-04-21T22:51:37.450Z,95.70
2019-04-21T22:56:50.392Z,95.90
2019-04-21T23:01:50.804Z,95.90
2019-04-21T23:07:02.943Z,95.90
2019-04-21T23:12:08.228Z,95.90
2019-04-21T23:17:32.339Z,96.20
2019-04-21T23:22:56.890Z,96.20
2019-04-21T23:27:53.879Z,96.50
2019-04-21T23:32:51.225Z,96.40
2019-04-21T23:37:58.668Z,96.60
2019-04-21T23:43:09.636Z,96.60
2019-04-21T23:48:26.067Z,96.80
2019-04-21T23:53:21.501Z,97.50
2019-04-21T23:58:32.630Z,97.40
